Time;durP1;ratioP1;P1;durP2;ratioP2;P2;SDS_P1;SDS_P2;PMS_P1;PMS_P2;Temp;Humidity;BMP_temperature;BMP_pressure;BME280_temperature;BME280_humidity;BME280_pressure;Samples;Min_cycle;Max_cycle;Signal;HPM_P1;HPM_P2
2023/08/11 00:00:50;;;;;;;6.40;2.78;;;17.40;99.90;;;;;;5075293;28;20032;-75
2023/08/11 00:03:16;;;;;;;5.43;2.90;;;17.20;99.90;;;;;;5075676;28;20047;-74
2023/08/11 00:05:42;;;;;;;5.50;2.92;;;17.20;99.90;;;;;;5075116;28;20040;-74
2023/08/11 00:08:08;;;;;;;3.20;2.65;;;17.10;99.90;;;;;;5075711;28;20032;-74
2023/08/11 00:10:35;;;;;;;4.68;3.00;;;17.10;99.90;;;;;;5075229;28;20036;-74
2023/08/11 00:13:02;;;;;;;4.15;2.80;;;17.00;99.90;;;;;;5057417;28;20028;-75
2023/08/11 00:15:28;;;;;;;3.85;2.95;;;17.00;99.90;;;;;;5057947;28;20048;-73
2023/08/11 00:18:00;;;;;;;3.55;2.78;;;16.90;99.90;;;;;;5056154;28;20041;-74
2023/08/11 00:20:28;;;;;;;4.10;3.00;;;16.80;99.90;;;;;;5057212;28;20051;-73
2023/08/11 00:22:54;;;;;;;7.25;2.83;;;16.80;99.90;;;;;;5075200;28;20403;-74
2023/08/11 00:25:21;;;;;;;7.60;3.00;;;16.70;99.90;;;;;;5074400;28;20036;-74
2023/08/11 00:27:47;;;;;;;6.75;2.78;;;16.70;99.90;;;;;;5065760;28;20576;-74
2023/08/11 00:30:13;;;;;;;6.35;3.17;;;16.60;99.90;;;;;;5066660;28;20052;-74
2023/08/11 00:32:38;;;;;;;3.65;2.80;;;16.50;99.90;;;;;;5071868;28;20036;-74
2023/08/11 00:35:04;;;;;;;5.13;2.88;;;16.50;99.90;;;;;;5063134;28;20037;-74
2023/08/11 00:37:31;;;;;;;4.07;2.95;;;16.40;99.90;;;;;;5054810;28;20041;-74
2023/08/11 00:39:57;;;;;;;3.60;2.90;;;16.40;99.90;;;;;;5065293;28;20372;-74
2023/08/11 00:42:23;;;;;;;3.50;3.20;;;16.40;99.90;;;;;;5057928;28;20096;-75
2023/08/11 00:44:49;;;;;;;5.40;3.30;;;16.40;99.90;;;;;;5074820;28;20035;-74
2023/08/11 00:47:15;;;;;;;5.22;3.55;;;16.30;99.90;;;;;;5066408;28;20036;-74
2023/08/11 00:49:41;;;;;;;4.55;3.30;;;16.20;99.90;;;;;;5062760;28;20045;-74
2023/08/11 00:52:07;;;;;;;3.63;3.00;;;16.20;99.90;;;;;;5083550;28;20407;-74
2023/08/11 00:54:33;;;;;;;5.30;3.53;;;16.20;99.90;;;;;;5072608;28;20047;-75
2023/08/11 00:56:59;;;;;;;3.63;3.28;;;16.20;99.90;;;;;;5065032;28;20513;-74
2023/08/11 00:59:25;;;;;;;5.75;4.03;;;16.10;99.90;;;;;;5064479;28;20048;-74
2023/08/11 01:01:50;;;;;;;4.75;3.60;;;16.10;99.90;;;;;;5064561;28;20051;-74
2023/08/11 01:04:16;;;;;;;5.60;4.22;;;16.10;99.90;;;;;;5074483;28;20128;-74
2023/08/11 01:06:47;;;;;;;5.18;3.70;;;16.00;99.90;;;;;;5070241;28;20059;-74
2023/08/11 01:09:16;;;;;;;6.00;4.10;;;16.00;99.90;;;;;;5065774;28;20396;-74
2023/08/11 01:11:59;;;;;;;6.95;4.50;;;16.00;99.90;;;;;;5066734;28;20403;-74
2023/08/11 01:14:36;;;;;;;5.57;4.87;;;16.00;99.90;;;;;;5070739;28;20040;-74
2023/08/11 01:17:04;;;;;;;6.35;4.80;;;15.90;99.90;;;;;;5067732;28;20043;-74
2023/08/11 01:19:35;;;;;;;5.88;4.85;;;15.90;99.90;;;;;;5071191;28;20036;-74
2023/08/11 01:22:05;;;;;;;9.00;5.13;;;15.90;99.90;;;;;;5068471;28;20036;-74
2023/08/11 01:24:31;;;;;;;6.78;4.88;;;15.90;99.90;;;;;;5071590;28;20044;-74
2023/08/11 01:26:58;;;;;;;6.35;5.10;;;15.90;99.90;;;;;;5073461;28;20105;-74
2023/08/11 01:29:25;;;;;;;8.88;5.18;;;15.90;99.90;;;;;;5073971;28;20082;-74
2023/08/11 01:31:50;;;;;;;7.18;5.32;;;15.80;99.90;;;;;;5071736;28;20047;-74
2023/08/11 01:34:16;;;;;;;6.70;5.47;;;15.80;99.90;;;;;;5073713;28;20491;-73
2023/08/11 01:36:42;;;;;;;7.05;5.38;;;15.80;99.90;;;;;;5061781;28;20047;-74
2023/08/11 01:39:09;;;;;;;6.20;5.57;;;15.80;99.90;;;;;;5066117;28;20047;-74
2023/08/11 01:41:36;;;;;;;7.93;6.22;;;15.80;99.90;;;;;;5075208;28;20044;-74
2023/08/11 01:44:03;;;;;;;7.97;6.03;;;15.70;99.90;;;;;;5060501;28;20622;-74
2023/08/11 01:46:29;;;;;;;11.57;6.35;;;15.70;99.90;;;;;;5090024;28;20441;-74
2023/08/11 01:48:56;;;;;;;9.55;6.50;;;15.70;99.90;;;;;;5073248;28;20082;-74
2023/08/11 01:51:25;;;;;;;7.95;6.93;;;15.70;99.90;;;;;;5083145;28;20046;-74
2023/08/11 01:53:51;;;;;;;8.18;7.05;;;15.70;99.90;;;;;;5053453;28;20106;-74
2023/08/11 01:56:19;;;;;;;8.57;6.50;;;15.70;99.90;;;;;;5072958;28;20089;-74
2023/08/11 01:58:45;;;;;;;8.15;6.43;;;15.60;99.90;;;;;;5091391;28;20477;-74
2023/08/11 02:01:10;;;;;;;9.30;6.97;;;15.60;99.90;;;;;;5064516;28;20435;-74
2023/08/11 02:03:36;;;;;;;8.27;6.72;;;15.60;99.90;;;;;;5055303;28;20036;-74
2023/08/11 02:06:01;;;;;;;9.68;7.40;;;15.60;99.90;;;;;;5062676;28;20111;-73
2023/08/11 02:08:27;;;;;;;9.98;7.88;;;15.50;99.90;;;;;;5072602;28;20403;-74
2023/08/11 02:10:55;;;;;;;13.30;7.00;;;15.50;99.90;;;;;;5068024;28;20124;-74
2023/08/11 02:13:21;;;;;;;8.50;7.60;;;15.50;99.90;;;;;;5053153;28;20080;-74
2023/08/11 02:15:46;;;;;;;8.90;8.00;;;15.40;99.90;;;;;;5057114;28;20043;-74
2023/08/11 02:18:12;;;;;;;9.88;8.27;;;15.50;99.90;;;;;;5091249;28;20090;-74
2023/08/11 02:20:37;;;;;;;12.77;8.50;;;15.40;99.90;;;;;;5070733;28;20040;-74
2023/08/11 02:23:03;;;;;;;9.20;8.27;;;15.40;99.90;;;;;;5057982;28;20055;-74
2023/08/11 02:25:28;;;;;;;9.75;8.10;;;15.40;99.90;;;;;;5064166;28;20043;-74
2023/08/11 02:27:54;;;;;;;10.13;7.93;;;15.40;99.90;;;;;;5062734;28;20039;-74
2023/08/11 02:30:21;;;;;;;12.25;9.68;;;15.40;99.90;;;;;;5064547;28;20048;-74
2023/08/11 02:32:47;;;;;;;10.30;9.30;;;15.40;99.90;;;;;;5072779;28;20043;-74
2023/08/11 02:35:13;;;;;;;14.27;9.32;;;15.40;99.90;;;;;;5090937;28;20521;-74
2023/08/11 02:37:39;;;;;;;12.25;9.05;;;15.50;99.90;;;;;;5073008;28;20111;-74
2023/08/11 02:40:10;;;;;;;14.77;10.75;;;15.30;99.90;;;;;;5066832;28;20504;-74
2023/08/11 02:42:45;;;;;;;13.52;10.05;;;15.30;99.90;;;;;;5077732;28;20510;-74
2023/08/11 02:45:11;;;;;;;12.60;10.80;;;15.40;99.90;;;;;;5065827;28;20064;-74
2023/08/11 02:47:38;;;;;;;12.95;10.68;;;15.30;99.90;;;;;;5063394;28;20109;-74
2023/08/11 02:50:05;;;;;;;13.70;10.85;;;15.30;99.90;;;;;;5066908;28;20036;-74
2023/08/11 02:52:30;;;;;;;13.93;10.85;;;15.30;99.90;;;;;;5070238;28;20051;-74
2023/08/11 02:54:56;;;;;;;13.02;11.43;;;15.30;99.90;;;;;;5072576;28;20036;-74
2023/08/11 02:57:21;;;;;;;14.18;12.02;;;15.30;99.90;;;;;;5076433;28;20583;-75
2023/08/11 02:59:49;;;;;;;14.05;11.02;;;15.30;99.90;;;;;;5068926;28;20043;-74
2023/08/11 03:02:16;;;;;;;14.15;11.25;;;15.30;99.90;;;;;;5079106;28;20072;-74
2023/08/11 03:04:42;;;;;;;13.25;11.05;;;15.30;99.90;;;;;;5069483;28;20062;-74
2023/08/11 03:07:09;;;;;;;13.55;11.88;;;15.30;99.90;;;;;;5051094;28;20525;-74
2023/08/11 03:09:35;;;;;;;15.15;12.43;;;15.30;99.90;;;;;;5062002;28;20546;-74
2023/08/11 03:12:01;;;;;;;14.27;11.57;;;15.30;99.90;;;;;;5077513;28;20044;-74
2023/08/11 03:14:26;;;;;;;14.48;12.45;;;15.20;99.90;;;;;;5066485;28;20336;-74
2023/08/11 03:16:53;;;;;;;13.02;11.52;;;15.20;99.90;;;;;;5090532;28;20107;-74
2023/08/11 03:19:19;;;;;;;13.63;12.02;;;15.20;99.90;;;;;;5072127;28;20076;-74
2023/08/11 03:21:45;;;;;;;13.90;10.75;;;15.20;99.90;;;;;;5064173;28;20071;-74
2023/08/11 03:24:10;;;;;;;14.07;12.20;;;15.20;99.90;;;;;;5080048;28;20510;-74
2023/08/11 03:26:36;;;;;;;14.32;11.57;;;15.10;99.90;;;;;;5065745;28;20486;-74
2023/08/11 03:29:02;;;;;;;12.15;10.85;;;15.10;99.90;;;;;;5057896;28;20416;-74
2023/08/11 03:31:28;;;;;;;12.65;11.05;;;15.10;99.90;;;;;;5067790;28;20067;-75
2023/08/11 03:33:54;;;;;;;12.43;11.13;;;15.10;99.90;;;;;;5060718;28;20032;-74
2023/08/11 03:36:20;;;;;;;12.40;11.15;;;15.10;99.90;;;;;;5075602;28;20556;-74
2023/08/11 03:38:46;;;;;;;14.07;11.70;;;15.10;99.90;;;;;;5092790;28;20048;-74
2023/08/11 03:41:12;;;;;;;15.45;12.30;;;15.00;99.90;;;;;;5067776;28;20059;-74
2023/08/11 03:43:37;;;;;;;13.80;11.35;;;15.10;99.90;;;;;;5075732;28;20047;-74
2023/08/11 03:46:03;;;;;;;15.32;12.50;;;15.00;99.90;;;;;;5071269;28;20454;-74
2023/08/11 03:48:29;;;;;;;14.85;12.38;;;15.00;99.90;;;;;;5075609;28;20047;-74
2023/08/11 03:51:01;;;;;;;12.73;11.40;;;15.00;99.90;;;;;;5083458;28;20495;-75
2023/08/11 03:53:27;;;;;;;14.07;12.02;;;15.00;99.90;;;;;;5072174;28;20058;-74
2023/08/11 03:55:53;;;;;;;14.40;12.02;;;15.00;99.90;;;;;;5066119;28;20031;-74
2023/08/11 03:58:20;;;;;;;14.00;11.52;;;15.00;99.90;;;;;;5075439;28;20036;-74
2023/08/11 04:00:47;;;;;;;14.38;12.20;;;15.00;99.90;;;;;;5066856;28;20633;-74
2023/08/11 04:03:14;;;;;;;13.85;12.43;;;15.00;99.90;;;;;;5060070;28;20036;-74
2023/08/11 04:05:43;;;;;;;13.80;11.57;;;15.00;99.90;;;;;;5055099;28;20403;-74
2023/08/11 04:08:08;;;;;;;11.52;10.27;;;14.90;99.90;;;;;;5054334;28;20545;-74
2023/08/11 04:10:38;;;;;;;13.02;11.65;;;14.90;99.90;;;;;;5053058;28;20044;-74
2023/08/11 04:13:04;;;;;;;14.95;11.65;;;14.90;99.90;;;;;;5063561;28;20045;-75
2023/08/11 04:15:33;;;;;;;12.40;10.52;;;14.90;99.90;;;;;;5089243;28;20463;-74
2023/08/11 04:17:59;;;;;;;11.75;10.52;;;14.90;99.90;;;;;;5075225;28;20044;-75
2023/08/11 04:20:24;;;;;;;14.43;11.48;;;14.90;99.90;;;;;;5084176;28;20144;-74
2023/08/11 04:22:50;;;;;;;15.50;11.30;;;14.90;99.90;;;;;;5075050;28;20154;-74
2023/08/11 04:25:16;;;;;;;12.90;10.88;;;14.90;99.90;;;;;;5075057;28;20044;-74
2023/08/11 04:27:41;;;;;;;13.30;11.90;;;14.90;99.90;;;;;;5075186;28;20143;-75
2023/08/11 04:30:08;;;;;;;14.18;11.30;;;15.00;99.90;;;;;;5071440;28;20040;-74
2023/08/11 04:32:34;;;;;;;14.35;11.98;;;15.00;99.90;;;;;;5062054;28;20051;-74
2023/08/11 04:35:00;;;;;;;13.40;12.00;;;15.00;99.90;;;;;;5066290;28;20036;-74
2023/08/11 04:37:25;;;;;;;11.98;10.68;;;15.00;99.90;;;;;;5069894;28;20047;-74
2023/08/11 04:39:51;;;;;;;15.05;11.20;;;15.10;99.90;;;;;;5062755;28;20067;-74
2023/08/11 04:42:17;;;;;;;11.90;10.70;;;15.10;99.90;;;;;;5060754;28;20033;-74
2023/08/11 04:44:42;;;;;;;14.95;10.43;;;15.20;99.90;;;;;;5067602;28;20066;-74
2023/08/11 04:47:08;;;;;;;11.57;9.93;;;15.20;99.90;;;;;;5062194;28;20028;-74
2023/08/11 04:49:33;;;;;;;12.75;10.38;;;15.20;99.90;;;;;;5064993;28;20411;-74
2023/08/11 04:51:59;;;;;;;16.13;11.25;;;15.30;99.90;;;;;;5054622;28;20498;-74
2023/08/11 04:54:25;;;;;;;13.20;10.88;;;15.30;99.90;;;;;;5072325;28;20143;-74
2023/08/11 04:56:50;;;;;;;12.70;10.75;;;15.40;99.90;;;;;;5049269;28;20089;-74
2023/08/11 04:59:19;;;;;;;11.45;10.32;;;15.40;99.90;;;;;;5074349;28;20082;-74
2023/08/11 05:01:44;;;;;;;13.82;9.93;;;15.40;99.90;;;;;;5074341;28;20100;-74
2023/08/11 05:04:10;;;;;;;11.63;10.23;;;15.50;99.90;;;;;;5057130;28;20040;-74
2023/08/11 05:06:36;;;;;;;12.65;10.10;;;15.50;99.90;;;;;;5074061;28;20074;-75
2023/08/11 05:09:05;;;;;;;12.15;10.05;;;15.60;99.90;;;;;;5075500;28;20051;-74
2023/08/11 05:11:31;;;;;;;12.90;10.00;;;15.60;99.90;;;;;;5065277;28;20441;-75
2023/08/11 05:13:56;;;;;;;11.80;10.13;;;15.70;99.90;;;;;;5058089;28;20036;-74
2023/08/11 05:16:23;;;;;;;11.77;9.27;;;15.70;99.90;;;;;;5053386;28;20159;-76
2023/08/11 05:18:49;;;;;;;13.77;10.80;;;15.80;99.90;;;;;;5073914;28;20119;-74
2023/08/11 05:21:15;;;;;;;11.38;9.20;;;15.90;99.90;;;;;;5073953;28;20626;-74
2023/08/11 05:23:41;;;;;;;12.60;9.30;;;16.00;99.90;;;;;;5068931;28;20495;-75
2023/08/11 05:26:06;;;;;;;10.07;8.90;;;16.10;99.90;;;;;;5061938;28;20033;-74
2023/08/11 05:28:32;;;;;;;9.52;8.50;;;16.10;99.90;;;;;;5063697;28;20040;-74
2023/08/11 05:30:57;;;;;;;11.10;9.15;;;16.20;99.90;;;;;;5075811;28;20567;-74
2023/08/11 05:33:24;;;;;;;11.57;9.15;;;16.30;99.90;;;;;;5063998;28;20145;-74
2023/08/11 05:35:51;;;;;;;11.18;8.85;;;16.30;99.90;;;;;;5073112;28;20723;-74
2023/08/11 05:38:22;;;;;;;12.00;8.77;;;16.40;99.90;;;;;;5073746;28;20067;-74
2023/08/11 05:40:48;;;;;;;12.52;8.63;;;16.50;99.90;;;;;;5068167;28;20036;-74
2023/08/11 05:43:14;;;;;;;13.25;8.95;;;16.60;99.90;;;;;;5060261;28;20036;-74
2023/08/11 05:45:39;;;;;;;13.45;9.35;;;16.70;99.90;;;;;;5071770;28;20521;-74
2023/08/11 05:48:05;;;;;;;11.60;9.00;;;16.80;99.90;;;;;;5074893;28;20082;-74
2023/08/11 05:50:31;;;;;;;11.40;8.70;;;16.90;99.90;;;;;;5064400;28;20036;-74
2023/08/11 05:52:56;;;;;;;14.13;8.70;;;16.90;99.90;;;;;;5067429;28;20040;-74
2023/08/11 05:55:22;;;;;;;14.23;8.93;;;17.00;99.90;;;;;;5061457;28;20043;-74
2023/08/11 05:57:47;;;;;;;10.80;8.35;;;17.10;99.90;;;;;;5069008;28;20107;-74
2023/08/11 06:00:14;;;;;;;12.70;8.20;;;17.20;99.90;;;;;;5085038;28;20086;-75
2023/08/11 06:02:39;;;;;;;8.80;7.90;;;17.30;99.90;;;;;;5064195;28;20059;-74
2023/08/11 06:05:05;;;;;;;10.80;7.88;;;17.40;99.90;;;;;;5073200;28;20542;-74
2023/08/11 06:07:31;;;;;;;10.05;7.30;;;17.50;99.90;;;;;;5056384;28;20448;-74
2023/08/11 06:09:56;;;;;;;10.30;7.80;;;17.60;99.90;;;;;;5073101;28;20040;-74
2023/08/11 06:12:22;;;;;;;13.02;8.00;;;17.60;99.90;;;;;;5069995;28;20048;-73
2023/08/11 06:14:47;;;;;;;9.68;7.82;;;17.70;99.90;;;;;;5057061;28;20163;-74
2023/08/11 06:17:13;;;;;;;11.73;7.55;;;17.80;99.90;;;;;;5078162;28;20407;-74
2023/08/11 06:19:38;;;;;;;9.90;7.65;;;17.90;99.90;;;;;;5072016;28;20040;-74
2023/08/11 06:22:04;;;;;;;10.00;6.80;;;18.00;99.90;;;;;;5066563;28;20408;-74
2023/08/11 06:24:30;;;;;;;8.63;7.18;;;18.10;99.90;;;;;;5070424;28;20028;-74
2023/08/11 06:26:55;;;;;;;12.48;7.20;;;18.20;99.90;;;;;;5072066;28;20067;-74
2023/08/11 06:29:21;;;;;;;9.70;7.15;;;18.30;99.90;;;;;;5070740;28;20058;-74
2023/08/11 06:31:46;;;;;;;9.52;7.03;;;18.40;99.90;;;;;;5067283;28;20092;-74
2023/08/11 06:34:16;;;;;;;9.82;7.70;;;18.50;99.90;;;;;;5075517;28;20441;-74
2023/08/11 06:36:43;;;;;;;9.93;7.05;;;18.60;99.90;;;;;;5068417;28;20131;-74
2023/08/11 06:39:08;;;;;;;9.07;6.60;;;18.70;99.90;;;;;;5070042;28;20045;-74
2023/08/11 06:41:34;;;;;;;14.95;8.30;;;18.80;99.90;;;;;;5072304;28;20028;-74
2023/08/11 06:43:59;;;;;;;11.23;7.15;;;18.90;99.90;;;;;;5072883;28;20064;-76
2023/08/11 06:46:25;;;;;;;10.35;6.75;;;18.90;99.90;;;;;;5072042;28;20079;-74
2023/08/11 06:48:50;;;;;;;8.80;6.63;;;19.10;99.90;;;;;;5070010;28;20035;-74
2023/08/11 06:51:16;;;;;;;7.20;6.50;;;19.20;99.90;;;;;;5072014;28;20090;-75
2023/08/11 06:53:41;;;;;;;9.20;6.45;;;19.30;99.90;;;;;;5071317;28;20046;-74
2023/08/11 06:56:07;;;;;;;7.13;6.13;;;19.30;99.90;;;;;;5071193;28;20127;-74
2023/08/11 06:58:32;;;;;;;7.53;5.80;;;19.50;99.90;;;;;;5072262;28;20039;-75
2023/08/11 07:00:59;;;;;;;8.50;5.80;;;19.50;99.90;;;;;;5077251;28;20028;-75
2023/08/11 07:03:24;;;;;;;6.93;5.85;;;19.70;99.90;;;;;;5075219;28;20043;-74
2023/08/11 07:05:51;;;;;;;7.82;5.35;;;19.80;99.90;;;;;;5075594;28;20519;-75
2023/08/11 07:08:18;;;;;;;7.78;5.85;;;19.90;99.90;;;;;;5075863;28;20044;-76
2023/08/11 07:10:43;;;;;;;7.43;5.25;;;20.00;99.90;;;;;;5073923;28;20154;-75
2023/08/11 07:13:09;;;;;;;7.13;4.45;;;20.10;99.90;;;;;;5072888;28;20127;-75
2023/08/11 07:15:34;;;;;;;10.18;5.60;;;20.20;99.90;;;;;;5091919;28;20040;-75
2023/08/11 07:18:00;;;;;;;7.03;5.57;;;20.30;99.90;;;;;;5091129;28;20552;-74
2023/08/11 07:20:25;;;;;;;9.00;5.43;;;20.50;99.90;;;;;;5074794;28;20055;-74
2023/08/11 07:22:51;;;;;;;6.00;5.35;;;20.60;99.90;;;;;;5074470;28;20032;-74
2023/08/11 07:25:17;;;;;;;7.45;5.57;;;20.70;99.90;;;;;;5068162;28;20093;-75
2023/08/11 07:27:42;;;;;;;7.07;5.43;;;20.70;99.90;;;;;;5088427;28;20032;-75
2023/08/11 07:30:09;;;;;;;9.38;5.65;;;20.90;99.90;;;;;;5073412;28;20040;-75
2023/08/11 07:32:35;;;;;;;9.07;5.70;;;21.00;99.90;;;;;;5073495;28;20409;-75
2023/08/11 07:35:00;;;;;;;6.50;5.25;;;21.00;99.90;;;;;;5074599;28;20110;-75
2023/08/11 07:37:26;;;;;;;6.63;4.95;;;21.10;99.90;;;;;;5092677;28;20047;-75
2023/08/11 07:39:51;;;;;;;9.98;5.25;;;21.10;99.90;;;;;;5075306;28;20067;-75
2023/08/11 07:42:17;;;;;;;7.22;5.10;;;21.20;99.90;;;;;;5075665;28;20093;-75
2023/08/11 07:44:43;;;;;;;11.25;5.25;;;21.40;99.90;;;;;;5093635;28;20090;-75
2023/08/11 07:47:09;;;;;;;7.13;4.82;;;21.40;99.90;;;;;;5093687;28;20082;-76
2023/08/11 07:49:34;;;;;;;6.95;4.78;;;21.50;99.90;;;;;;5075293;28;20516;-75
2023/08/11 07:52:00;;;;;;;7.55;5.40;;;21.60;99.90;;;;;;5093634;28;20039;-75
2023/08/11 07:54:26;;;;;;;7.15;5.15;;;21.60;99.90;;;;;;5074096;28;20506;-75
2023/08/11 07:56:51;;;;;;;7.32;4.80;;;21.80;99.90;;;;;;5078307;28;20509;-75
2023/08/11 07:59:17;;;;;;;7.60;4.22;;;21.90;99.90;;;;;;5075557;28;20035;-75
2023/08/11 08:01:42;;;;;;;7.20;4.82;;;22.00;99.90;;;;;;5073739;28;20047;-75
2023/08/11 08:04:10;;;;;;;5.65;4.72;;;22.00;99.90;;;;;;5072027;28;20032;-75
2023/08/11 08:06:43;;;;;;;7.30;4.78;;;22.00;99.90;;;;;;5076862;28;20415;-75
2023/08/11 08:09:11;;;;;;;5.97;4.30;;;22.10;99.90;;;;;;5072665;28;20411;-76
2023/08/11 08:11:38;;;;;;;6.78;4.43;;;22.30;99.90;;;;;;5072158;28;20040;-76
2023/08/11 08:14:03;;;;;;;5.90;4.07;;;22.40;99.90;;;;;;5075935;28;20125;-75
2023/08/11 08:16:29;;;;;;;6.25;4.68;;;22.50;99.90;;;;;;5068118;28;20138;-76
2023/08/11 08:18:54;;;;;;;7.97;4.57;;;22.60;99.90;;;;;;5073282;28;20044;-77
2023/08/11 08:21:20;;;;;;;6.03;4.43;;;22.60;99.90;;;;;;5091070;28;20074;-74
2023/08/11 08:23:47;;;;;;;7.85;4.20;;;22.80;99.90;;;;;;5075580;28;20048;-76
2023/08/11 08:26:12;;;;;;;5.95;4.30;;;22.90;99.90;;;;;;5079585;28;20036;-76
2023/08/11 08:28:38;;;;;;;6.70;3.97;;;22.90;99.90;;;;;;5091439;28;20039;-74
2023/08/11 08:31:05;;;;;;;8.63;4.72;;;23.00;99.90;;;;;;5086576;28;20035;-75
2023/08/11 08:33:31;;;;;;;6.97;4.43;;;23.10;99.90;;;;;;5074487;28;20453;-76
2023/08/11 08:35:57;;;;;;;5.75;4.45;;;23.10;99.90;;;;;;5075341;28;20089;-75
2023/08/11 08:38:22;;;;;;;6.72;3.97;;;23.10;99.90;;;;;;5077795;28;20519;-75
2023/08/11 08:40:48;;;;;;;7.45;4.20;;;23.10;99.90;;;;;;5068071;28;20147;-75
2023/08/11 08:43:16;;;;;;;5.53;3.75;;;23.20;99.90;;;;;;5081158;28;20399;-75
2023/08/11 08:45:43;;;;;;;6.10;3.90;;;23.30;99.90;;;;;;5073861;28;20047;-74
2023/08/11 08:48:21;;;;;;;6.88;4.13;;;23.40;99.90;;;;;;5078556;28;20075;-75
2023/08/11 08:50:47;;;;;;;7.32;3.88;;;23.40;99.90;;;;;;5072612;28;20075;-75
2023/08/11 08:53:13;;;;;;;6.95;4.32;;;23.40;99.90;;;;;;5074383;28;20452;-75
2023/08/11 08:55:39;;;;;;;5.47;3.53;;;23.40;99.90;;;;;;5075010;28;20118;-76
2023/08/11 08:58:05;;;;;;;6.03;3.80;;;23.60;99.90;;;;;;5073663;28;20043;-75
2023/08/11 09:00:32;;;;;;;7.47;3.78;;;23.60;99.90;;;;;;5091703;28;20067;-75
2023/08/11 09:03:00;;;;;;;6.35;3.80;;;23.70;99.90;;;;;;5074171;28;20115;-76
2023/08/11 09:05:26;;;;;;;5.45;3.20;;;23.70;99.90;;;;;;5072991;28;20036;-76
2023/08/11 09:07:51;;;;;;;5.95;3.42;;;23.80;99.90;;;;;;5073664;28;20491;-75
2023/08/11 09:10:18;;;;;;;5.05;3.10;;;23.90;99.90;;;;;;5073744;28;20047;-77
2023/08/11 09:12:44;;;;;;;5.10;3.30;;;24.00;99.90;;;;;;5069274;28;20040;-76
2023/08/11 09:15:11;;;;;;;4.53;2.80;;;24.00;99.90;;;;;;5076895;28;20065;-76
2023/08/11 09:17:38;;;;;;;5.57;3.00;;;24.10;99.90;;;;;;5074652;28;20085;-77
2023/08/11 09:20:07;;;;;;;5.22;3.25;;;24.10;99.90;;;;;;5073471;28;20115;-77
2023/08/11 09:22:36;;;;;;;8.43;3.50;;;24.20;99.90;;;;;;5069637;28;20040;-75
2023/08/11 09:25:03;;;;;;;7.68;3.75;;;24.20;99.90;;;;;;5070439;28;20109;-75
2023/08/11 09:27:30;;;;;;;8.25;3.30;;;24.20;99.90;;;;;;5067204;28;20404;-76
2023/08/11 09:29:56;;;;;;;4.75;3.20;;;24.20;99.90;;;;;;5071020;28;20039;-76
2023/08/11 09:32:23;;;;;;;6.85;3.40;;;24.20;99.90;;;;;;5067039;28;20461;-75
2023/08/11 09:34:49;;;;;;;5.90;3.55;;;24.20;99.90;;;;;;5071702;28;20107;-76
2023/08/11 09:37:14;;;;;;;5.43;3.13;;;24.20;99.90;;;;;;5072873;28;20028;-78
2023/08/11 09:39:42;;;;;;;5.90;2.97;;;24.20;99.90;;;;;;5069152;28;20174;-76
2023/08/11 09:42:08;;;;;;;8.68;3.40;;;24.30;99.90;;;;;;5075179;28;20039;-77
2023/08/11 09:44:34;;;;;;;4.47;3.28;;;24.40;99.90;;;;;;5075967;28;20040;-77
2023/08/11 09:47:03;;;;;;;6.10;3.28;;;24.50;99.90;;;;;;5073228;28;20032;-76
2023/08/11 09:49:29;;;;;;;4.75;3.33;;;24.50;99.90;;;;;;5075827;28;20036;-77
2023/08/11 09:51:59;;;;;;;5.18;3.15;;;24.50;99.90;;;;;;5072764;28;20044;-77
2023/08/11 09:54:25;;;;;;;5.18;3.00;;;24.50;99.90;;;;;;5072150;28;20047;-79
2023/08/11 09:56:52;;;;;;;6.65;3.40;;;24.70;99.90;;;;;;5069939;28;20064;-78
2023/08/11 09:59:22;;;;;;;4.07;3.00;;;24.80;99.90;;;;;;5091242;28;20406;-78
2023/08/11 10:01:51;;;;;;;5.45;2.88;;;24.90;99.90;;;;;;5056533;28;20046;-76
2023/08/11 10:04:32;;;;;;;7.22;3.28;;;24.90;99.90;;;;;;5073365;28;20414;-79
2023/08/11 10:06:59;;;;;;;4.88;2.80;;;25.10;99.90;;;;;;5064891;28;20036;-79
2023/08/11 10:09:27;;;;;;;4.35;2.60;;;25.20;99.90;;;;;;5074187;28;20091;-76
2023/08/11 10:11:56;;;;;;;3.90;2.92;;;25.40;99.90;;;;;;5072906;28;20044;-77
2023/08/11 10:14:22;;;;;;;6.30;2.80;;;25.50;99.90;;;;;;5064671;28;20040;-77
2023/08/11 10:16:49;;;;;;;5.53;2.67;;;25.50;99.90;;;;;;5072582;28;20491;-78
2023/08/11 10:19:16;;;;;;;4.00;2.40;;;25.50;99.90;;;;;;5072849;28;20122;-78
2023/08/11 10:21:42;;;;;;;4.68;2.92;;;25.50;99.90;;;;;;5071841;28;20118;-77
2023/08/11 10:24:07;;;;;;;6.95;2.92;;;25.60;99.90;;;;;;5075224;28;20558;-78
2023/08/11 10:26:33;;;;;;;5.10;2.60;;;25.60;99.90;;;;;;5072608;28;20036;-77
2023/08/11 10:29:00;;;;;;;7.20;2.85;;;25.70;99.90;;;;;;5071081;28;20043;-77
2023/08/11 10:31:25;;;;;;;5.40;2.65;;;25.80;99.90;;;;;;5075751;28;20048;-78
2023/08/11 10:33:53;;;;;;;6.03;2.70;;;25.80;99.90;;;;;;5075867;28;20414;-78
2023/08/11 10:36:23;;;;;;;5.15;2.67;;;25.90;99.90;;;;;;5076303;28;20056;-77
2023/08/11 10:39:07;;;;;;;7.15;2.78;;;25.90;99.90;;;;;;5076425;28;20084;-78
2023/08/11 10:41:33;;;;;;;5.90;2.70;;;26.00;99.90;;;;;;5075682;28;20032;-78
2023/08/11 10:43:59;;;;;;;4.20;2.50;;;26.10;99.90;;;;;;5076692;28;20032;-77
2023/08/11 10:46:31;;;;;;;6.38;2.40;;;26.00;99.90;;;;;;5076554;28;20043;-77
2023/08/11 10:49:19;;;;;;;5.65;2.55;;;26.10;99.90;;;;;;5076755;28;20047;-77
2023/08/11 10:51:45;;;;;;;7.07;2.58;;;26.30;99.90;;;;;;5076588;28;20502;-78
2023/08/11 10:54:17;;;;;;;4.75;2.58;;;26.40;99.90;;;;;;5077175;28;20048;-77
2023/08/11 10:56:44;;;;;;;5.80;2.40;;;26.40;99.90;;;;;;5067752;28;20036;-77
2023/08/11 10:59:17;;;;;;;6.35;2.95;;;26.50;99.90;;;;;;5059523;28;20051;-78
2023/08/11 11:01:45;;;;;;;4.17;2.37;;;26.70;99.90;;;;;;5076116;28;20048;-77
2023/08/11 11:04:12;;;;;;;4.22;2.40;;;26.80;99.90;;;;;;5076286;28;20321;-77
2023/08/11 11:06:39;;;;;;;4.50;2.65;;;26.90;99.90;;;;;;5075658;28;20135;-79
2023/08/11 11:09:06;;;;;;;4.63;2.33;;;27.00;99.90;;;;;;5076076;28;20098;-77
2023/08/11 11:11:32;;;;;;;5.10;2.50;;;27.00;99.90;;;;;;5076038;28;20491;-78
2023/08/11 11:13:58;;;;;;;6.25;2.53;;;27.20;99.90;;;;;;5075977;28;20071;-77
2023/08/11 11:16:24;;;;;;;6.65;2.70;;;27.30;99.90;;;;;;5075929;28;20514;-78
2023/08/11 11:18:50;;;;;;;6.05;2.35;;;27.40;99.90;;;;;;5075487;28;20036;-78
2023/08/11 11:21:18;;;;;;;3.30;2.30;;;27.40;99.90;;;;;;5075937;28;20132;-76
2023/08/11 11:23:45;;;;;;;4.63;2.50;;;27.50;99.90;;;;;;5075954;28;20051;-76
2023/08/11 11:26:11;;;;;;;3.97;2.40;;;27.50;99.90;;;;;;5075633;28;20032;-76
2023/08/11 11:28:36;;;;;;;3.80;2.10;;;27.40;99.90;;;;;;5075751;28;20088;-77
2023/08/11 11:31:02;;;;;;;6.38;2.55;;;27.40;99.90;;;;;;5075731;28;20028;-77
2023/08/11 11:33:28;;;;;;;4.10;2.50;;;27.40;99.90;;;;;;5075832;28;20028;-78
2023/08/11 11:35:53;;;;;;;3.67;1.98;;;27.30;99.90;;;;;;5075004;28;20032;-78
2023/08/11 11:38:20;;;;;;;5.25;2.20;;;27.20;99.90;;;;;;5075836;28;20047;-77
2023/08/11 11:40:48;;;;;;;4.00;2.30;;;27.30;99.90;;;;;;5074913;28;20392;-77
2023/08/11 11:43:14;;;;;;;4.15;2.22;;;27.50;99.90;;;;;;5075708;28;20110;-78
2023/08/11 11:45:40;;;;;;;3.53;2.22;;;27.70;99.90;;;;;;5073709;28;20474;-79
2023/08/11 11:48:06;;;;;;;9.50;2.38;;;27.90;99.90;;;;;;5075874;28;20099;-77
2023/08/11 11:50:34;;;;;;;3.45;2.15;;;28.10;99.90;;;;;;5075640;28;20067;-76
2023/08/11 11:53:00;;;;;;;4.55;2.17;;;28.30;99.90;;;;;;5059163;28;20372;-78
2023/08/11 11:55:26;;;;;;;5.03;2.30;;;28.40;99.90;;;;;;5075233;28;20066;-77
2023/08/11 11:57:52;;;;;;;4.18;2.10;;;28.60;99.90;;;;;;5074868;28;20036;-77
2023/08/11 12:00:18;;;;;;;3.28;2.35;;;28.80;99.90;;;;;;5075164;28;20042;-77
2023/08/11 12:02:45;;;;;;;3.10;2.00;;;29.00;99.90;;;;;;5075110;28;20040;-77
2023/08/11 12:05:12;;;;;;;4.20;2.20;;;29.00;99.90;;;;;;5075011;28;20036;-77
2023/08/11 12:07:38;;;;;;;4.28;2.30;;;29.00;99.90;;;;;;5075039;28;20119;-78
2023/08/11 12:10:05;;;;;;;4.53;2.20;;;29.10;99.90;;;;;;5075209;28;20601;-78
2023/08/11 12:12:31;;;;;;;4.22;2.10;;;29.20;99.90;;;;;;5058437;28;20503;-77
2023/08/11 12:15:01;;;;;;;5.68;2.40;;;29.30;99.90;;;;;;5075346;28;20058;-76
2023/08/11 12:17:31;;;;;;;4.20;1.98;;;29.50;99.90;;;;;;5058214;28;20120;-78
2023/08/11 12:19:56;;;;;;;5.68;2.20;;;29.60;99.90;;;;;;5074871;28;20086;-77
2023/08/11 12:22:22;;;;;;;7.22;2.47;;;29.50;99.90;;;;;;5075116;28;20491;-78
2023/08/11 12:24:47;;;;;;;4.50;2.08;;;29.60;99.90;;;;;;5074642;28;20036;-77
2023/08/11 12:27:13;;;;;;;5.70;2.35;;;29.50;99.90;;;;;;5074480;28;20044;-77
2023/08/11 12:29:38;;;;;;;4.90;2.30;;;29.40;99.90;;;;;;5074632;28;20392;-77
2023/08/11 12:32:04;;;;;;;6.28;2.40;;;29.50;99.90;;;;;;5074842;28;20047;-77
2023/08/11 12:34:30;;;;;;;4.55;2.20;;;29.60;99.90;;;;;;5057923;28;20116;-77
2023/08/11 12:36:55;;;;;;;6.25;2.30;;;29.40;99.90;;;;;;5074489;28;20032;-77